Boone Municipal Airport
Friday 2:35 AM
Weather Clear
Temperature 27°
Dew Point 21°
Feels Like 17°
Relative Humidity 80
%
Visibility 10
mi
Pressure 1009.8
mb
Wind Direction SSE
Wind Speed 10
mph
Last Hour Precip 0.00
"
KBNW 020835Z AUTO 16009KT 10SM CLR M03/M06 A2982 RMK AO2

Recent Observations

Time Present Weather Temp DP Feels RH% Vsby Pressure Ceiling Direction Speed Gust 1h Precip
2:35AM
VFR
27° 21° 17° 80
%
10
mi
1009.8
mb
None SSE 10
mph
0.00"
KBNW 020835Z AUTO 16009KT 10SM CLR M03/M06 A2982 RMK AO2
2:15AM
VFR
27° 21° 17° 80
%
10
mi
1010.2
mb
None S 9
mph
0.00"
KBNW 020815Z AUTO 17008KT 10SM CLR M03/M06 A2983 RMK AO2
1:55AM
VFR
25° 21° 16° 86
%
10
mi
1010.5
mb
None S 8
mph
0.00"
KBNW 020755Z AUTO 17007KT 10SM CLR M04/M06 A2984 RMK AO2
1:35AM
VFR
27° 21° 19° 80
%
10
mi
1010.5
mb
None SSE 7
mph
0.00"
KBNW 020735Z AUTO 15006KT 10SM CLR M03/M06 A2984 RMK AO2
1:15AM
VFR
28° 21° 20° 74
%
10
mi
1010.8
mb
None SSE 9
mph
0.00"
KBNW 020715Z AUTO 16008KT 10SM CLR M02/M06 A2985 RMK AO2
12:55AM
VFR
28° 21° 20° 74
%
10
mi
1010.8
mb
None SSE 9
mph
0.00"
KBNW 020655Z AUTO 15008KT 10SM CLR M02/M06 A2985 RMK AO2
12:35AM
VFR
28° 21° 20° 74
%
10
mi
1011.5
mb
None SSE 9
mph
0.00"
KBNW 020635Z AUTO 16008KT 10SM CLR M02/M06 A2987 RMK AO2
12:15AM
VFR
30° 21° 21° 69
%
10
mi
1011.5
mb
None SSE 10
mph
16
mph
0.00"
KBNW 020615Z AUTO 16009G14KT 10SM CLR M01/M06 A2987 RMK AO2
11:55PM
VFR
30° 21° 19° 69
%
10
mi
1011.5
mb
None S 15
mph
0.00"
KBNW 020555Z AUTO 17013KT 10SM CLR M01/M06 A2987 RMK AO2
11:35PM
VFR
30° 23° 20° 74
%
10
mi
1011.9
mb
None S 14
mph
0.00"
KBNW 020535Z AUTO 17012KT 10SM CLR M01/M05 A2988 RMK AO2
11:15PM
VFR
30° 23° 21° 74
%
10
mi
1012.5
mb
None S 12
mph
0.00"
KBNW 020515Z AUTO 17010KT 10SM CLR M01/M05 A2990 RMK AO2
10:55PM
VFR
30° 23° 21° 74
%
10
mi
1012.9
mb
None S 12
mph
0.00"
KBNW 020455Z AUTO 17010KT 10SM FEW033 FEW040 M01/M05 A2991 RMK AO2
10:35PM
VFR
30° 23° 21° 74
%
10
mi
1013.2
mb
None SSE 10
mph
0.00"
KBNW 020435Z AUTO 16009KT 10SM CLR M01/M05 A2992 RMK AO2
10:15PM
VFR
32° 23° 23° 69
%
10
mi
1013.2
mb
None S 12
mph
17
mph
0.00"
KBNW 020415Z AUTO 17010G15KT 10SM CLR M00/M05 A2992 RMK AO2
9:55PM
VFR
32° 23° 23° 69
%
10
mi
1013.2
mb
None S 12
mph
0.00"
KBNW 020355Z AUTO 17010KT 10SM CLR M00/M05 A2992 RMK AO2
9:35PM
VFR
32° 21° 24° 64
%
10
mi
1013.5
mb
None S 10
mph
0.00"
KBNW 020335Z AUTO 17009KT 10SM CLR M00/M06 A2993 RMK AO2
9:15PM
VFR
32° 21° 22° 64
%
10
mi
1013.5
mb
None S 13
mph
0.00"
KBNW 020315Z AUTO 18011KT 10SM CLR 00/M06 A2993 RMK AO2
8:55PM
VFR
32° 21° 22° 64
%
10
mi
1013.5
mb
None S 13
mph
0.00"
KBNW 020255Z AUTO 17011KT 10SM CLR 00/M06 A2993 RMK AO2
8:35PM
VFR
32° 21° 22° 64
%
10
mi
1014.2
mb
None S 13
mph
0.00"
KBNW 020235Z AUTO 17011KT 10SM CLR 00/M06 A2995 RMK AO2
8:15PM
VFR
32° 21° 23° 64
%
10
mi
1014.6
mb
None S 12
mph
0.00"
KBNW 020215Z AUTO 18010KT 10SM CLR 00/M06 A2996 RMK AO2
Click here to show this page without METARs/TAFs included